sensor_id;sensor_type;location;lat;lon;timestamp;temperature;humidity
68813;DHT22;55808;48.112;11.552;2023-02-15T00:00:27;0.60;99.90
68813;DHT22;55808;48.112;11.552;2023-02-15T00:02:52;0.60;99.90
68813;DHT22;55808;48.112;11.552;2023-02-15T00:05:18;0.60;99.90
68813;DHT22;55808;48.112;11.552;2023-02-15T00:07:43;0.50;99.90
68813;DHT22;55808;48.112;11.552;2023-02-15T00:10:09;0.60;99.90
68813;DHT22;55808;48.112;11.552;2023-02-15T00:12:36;0.50;99.90
68813;DHT22;55808;48.112;11.552;2023-02-15T00:15:02;0.50;99.90
68813;DHT22;55808;48.112;11.552;2023-02-15T00:17:28;0.50;99.90
68813;DHT22;55808;48.112;11.552;2023-02-15T00:19:54;0.40;99.90
68813;DHT22;55808;48.112;11.552;2023-02-15T00:22:20;0.50;99.90
68813;DHT22;55808;48.112;11.552;2023-02-15T00:24:46;0.50;99.90
68813;DHT22;55808;48.112;11.552;2023-02-15T00:27:11;0.40;99.90
68813;DHT22;55808;48.112;11.552;2023-02-15T00:29:37;0.40;99.90
68813;DHT22;55808;48.112;11.552;2023-02-15T00:32:02;0.50;99.90
68813;DHT22;55808;48.112;11.552;2023-02-15T00:34:28;0.50;99.90
68813;DHT22;55808;48.112;11.552;2023-02-15T00:36:54;0.50;99.90
68813;DHT22;55808;48.112;11.552;2023-02-15T00:39:20;0.40;99.90
68813;DHT22;55808;48.112;11.552;2023-02-15T00:41:46;0.40;99.90
68813;DHT22;55808;48.112;11.552;2023-02-15T00:44:13;0.40;99.90
68813;DHT22;55808;48.112;11.552;2023-02-15T00:46:39;0.40;99.90
68813;DHT22;55808;48.112;11.552;2023-02-15T00:49:05;0.30;99.90
68813;DHT22;55808;48.112;11.552;2023-02-15T00:51:31;0.30;99.90
68813;DHT22;55808;48.112;11.552;2023-02-15T00:53:57;0.30;99.90
68813;DHT22;55808;48.112;11.552;2023-02-15T00:56:23;0.30;99.90
68813;DHT22;55808;48.112;11.552;2023-02-15T00:58:48;0.30;99.90
68813;DHT22;55808;48.112;11.552;2023-02-15T01:01:19;0.30;99.90
68813;DHT22;55808;48.112;11.552;2023-02-15T01:03:45;0.30;99.90
68813;DHT22;55808;48.112;11.552;2023-02-15T01:06:12;0.30;99.90
68813;DHT22;55808;48.112;11.552;2023-02-15T01:08:38;0.30;99.90
68813;DHT22;55808;48.112;11.552;2023-02-15T01:11:09;0.30;99.90
68813;DHT22;55808;48.112;11.552;2023-02-15T01:13:36;0.30;99.90
68813;DHT22;55808;48.112;11.552;2023-02-15T01:16:02;0.30;99.90
68813;DHT22;55808;48.112;11.552;2023-02-15T01:18:28;0.20;99.90
68813;DHT22;55808;48.112;11.552;2023-02-15T01:20:55;0.20;99.90
68813;DHT22;55808;48.112;11.552;2023-02-15T01:23:21;0.10;99.90
68813;DHT22;55808;48.112;11.552;2023-02-15T01:25:47;0.20;99.90
68813;DHT22;55808;48.112;11.552;2023-02-15T01:28:13;0.20;99.90
68813;DHT22;55808;48.112;11.552;2023-02-15T01:30:39;0.10;99.90
68813;DHT22;55808;48.112;11.552;2023-02-15T01:33:04;0.10;99.90
68813;DHT22;55808;48.112;11.552;2023-02-15T01:35:30;0.00;99.90
68813;DHT22;55808;48.112;11.552;2023-02-15T01:37:57;0.00;99.90
68813;DHT22;55808;48.112;11.552;2023-02-15T01:40:23;0.00;99.90
68813;DHT22;55808;48.112;11.552;2023-02-15T01:42:54;-0.10;99.90
68813;DHT22;55808;48.112;11.552;2023-02-15T01:45:29;-0.10;99.90
68813;DHT22;55808;48.112;11.552;2023-02-15T01:48:20;-0.20;99.90
68813;DHT22;55808;48.112;11.552;2023-02-15T01:50:58;-0.20;99.90
68813;DHT22;55808;48.112;11.552;2023-02-15T01:53:31;-0.20;99.90
68813;DHT22;55808;48.112;11.552;2023-02-15T01:56:02;-0.10;99.90
68813;DHT22;55808;48.112;11.552;2023-02-15T01:58:30;-0.20;99.90
68813;DHT22;55808;48.112;11.552;2023-02-15T02:00:59;-0.30;99.90
68813;DHT22;55808;48.112;11.552;2023-02-15T02:06:14;-0.40;99.90
68813;DHT22;55808;48.112;11.552;2023-02-15T02:08:40;-0.30;99.90
68813;DHT22;55808;48.112;11.552;2023-02-15T02:11:13;-0.40;99.90
68813;DHT22;55808;48.112;11.552;2023-02-15T02:13:41;-0.50;99.90
68813;DHT22;55808;48.112;11.552;2023-02-15T02:16:24;-0.40;99.90
68813;DHT22;55808;48.112;11.552;2023-02-15T02:21:56;-0.40;99.90
68813;DHT22;55808;48.112;11.552;2023-02-15T02:43:40;-0.50;99.90
68813;DHT22;55808;48.112;11.552;2023-02-15T02:46:17;-0.50;99.90
68813;DHT22;55808;48.112;11.552;2023-02-15T02:48:46;-0.40;99.90
68813;DHT22;55808;48.112;11.552;2023-02-15T02:51:14;-0.50;99.90
68813;DHT22;55808;48.112;11.552;2023-02-15T02:53:51;-0.60;99.90
68813;DHT22;55808;48.112;11.552;2023-02-15T02:56:27;-0.50;99.90
68813;DHT22;55808;48.112;11.552;2023-02-15T02:59:02;-0.60;99.90
68813;DHT22;55808;48.112;11.552;2023-02-15T03:01:39;-0.60;99.90
68813;DHT22;55808;48.112;11.552;2023-02-15T03:04:13;-0.60;99.90
68813;DHT22;55808;48.112;11.552;2023-02-15T03:06:45;-0.60;99.90
68813;DHT22;55808;48.112;11.552;2023-02-15T03:09:21;-0.60;99.90
68813;DHT22;55808;48.112;11.552;2023-02-15T03:11:50;-0.60;99.90
68813;DHT22;55808;48.112;11.552;2023-02-15T03:14:18;-0.60;99.90
68813;DHT22;55808;48.112;11.552;2023-02-15T03:16:47;-0.90;99.90
68813;DHT22;55808;48.112;11.552;2023-02-15T03:19:39;-1.10;99.90
68813;DHT22;55808;48.112;11.552;2023-02-15T03:22:11;-1.00;99.90
68813;DHT22;55808;48.112;11.552;2023-02-15T03:27:26;-1.40;99.90
68813;DHT22;55808;48.112;11.552;2023-02-15T03:29:56;-1.40;99.90
68813;DHT22;55808;48.112;11.552;2023-02-15T03:32:26;-1.50;99.90
68813;DHT22;55808;48.112;11.552;2023-02-15T03:34:54;-1.60;99.90
68813;DHT22;55808;48.112;11.552;2023-02-15T03:37:27;-1.50;99.90
68813;DHT22;55808;48.112;11.552;2023-02-15T03:40:06;-1.20;99.90
68813;DHT22;55808;48.112;11.552;2023-02-15T03:43:00;-1.20;99.90
68813;DHT22;55808;48.112;11.552;2023-02-15T03:45:31;-1.30;99.90
68813;DHT22;55808;48.112;11.552;2023-02-15T03:48:00;-1.40;99.90
68813;DHT22;55808;48.112;11.552;2023-02-15T03:50:31;-1.30;99.90
68813;DHT22;55808;48.112;11.552;2023-02-15T03:53:19;-1.10;99.90
68813;DHT22;55808;48.112;11.552;2023-02-15T03:55:52;-1.10;99.90
68813;DHT22;55808;48.112;11.552;2023-02-15T03:58:18;-1.20;99.90
68813;DHT22;55808;48.112;11.552;2023-02-15T04:01:21;-1.60;99.90
68813;DHT22;55808;48.112;11.552;2023-02-15T04:04:20;-1.50;99.90
68813;DHT22;55808;48.112;11.552;2023-02-15T04:06:47;-1.20;99.90
68813;DHT22;55808;48.112;11.552;2023-02-15T04:09:13;-1.10;99.90
68813;DHT22;55808;48.112;11.552;2023-02-15T04:11:59;-1.00;99.90
68813;DHT22;55808;48.112;11.552;2023-02-15T04:14:24;-1.20;99.90
68813;DHT22;55808;48.112;11.552;2023-02-15T04:17:09;-1.20;99.90
68813;DHT22;55808;48.112;11.552;2023-02-15T04:19:35;-1.30;99.90
68813;DHT22;55808;48.112;11.552;2023-02-15T04:22:20;-1.20;99.90
68813;DHT22;55808;48.112;11.552;2023-02-15T04:25:05;-1.10;99.90
68813;DHT22;55808;48.112;11.552;2023-02-15T04:27:42;-1.30;99.90
68813;DHT22;55808;48.112;11.552;2023-02-15T04:30:09;-1.10;99.90
68813;DHT22;55808;48.112;11.552;2023-02-15T04:32:36;-1.10;99.90
68813;DHT22;55808;48.112;11.552;2023-02-15T04:35:03;-1.00;99.90
68813;DHT22;55808;48.112;11.552;2023-02-15T04:37:28;-1.30;99.90
68813;DHT22;55808;48.112;11.552;2023-02-15T04:39:54;-1.50;99.90
68813;DHT22;55808;48.112;11.552;2023-02-15T04:42:20;-1.60;99.90
68813;DHT22;55808;48.112;11.552;2023-02-15T04:44:45;-1.60;99.90
68813;DHT22;55808;48.112;11.552;2023-02-15T04:47:11;-1.60;99.90
68813;DHT22;55808;48.112;11.552;2023-02-15T04:49:36;-1.50;99.90
68813;DHT22;55808;48.112;11.552;2023-02-15T04:52:02;-1.50;99.90
68813;DHT22;55808;48.112;11.552;2023-02-15T04:54:28;-1.30;99.90
68813;DHT22;55808;48.112;11.552;2023-02-15T04:56:53;-1.10;99.90
68813;DHT22;55808;48.112;11.552;2023-02-15T04:59:19;-0.90;99.90
68813;DHT22;55808;48.112;11.552;2023-02-15T05:01:45;-1.00;99.90
68813;DHT22;55808;48.112;11.552;2023-02-15T05:04:10;-1.30;99.90
68813;DHT22;55808;48.112;11.552;2023-02-15T05:06:36;-1.30;99.90
68813;DHT22;55808;48.112;11.552;2023-02-15T05:09:02;-1.10;99.90
68813;DHT22;55808;48.112;11.552;2023-02-15T05:11:27;-0.90;99.90
68813;DHT22;55808;48.112;11.552;2023-02-15T05:13:54;-1.00;99.90
68813;DHT22;55808;48.112;11.552;2023-02-15T05:16:20;-0.90;99.90
68813;DHT22;55808;48.112;11.552;2023-02-15T05:18:46;-0.90;99.90
68813;DHT22;55808;48.112;11.552;2023-02-15T05:21:12;-1.10;99.90
68813;DHT22;55808;48.112;11.552;2023-02-15T05:23:39;-1.00;99.90
68813;DHT22;55808;48.112;11.552;2023-02-15T05:26:04;-0.90;99.90
68813;DHT22;55808;48.112;11.552;2023-02-15T05:28:49;-0.80;99.90
68813;DHT22;55808;48.112;11.552;2023-02-15T05:31:17;-0.80;99.90
68813;DHT22;55808;48.112;11.552;2023-02-15T05:33:44;-0.80;99.90
68813;DHT22;55808;48.112;11.552;2023-02-15T05:36:10;-0.80;99.90
68813;DHT22;55808;48.112;11.552;2023-02-15T05:38:36;-0.90;99.90
68813;DHT22;55808;48.112;11.552;2023-02-15T05:41:09;-1.10;99.90
68813;DHT22;55808;48.112;11.552;2023-02-15T05:43:35;-1.10;99.90
68813;DHT22;55808;48.112;11.552;2023-02-15T05:46:02;-1.10;99.90
68813;DHT22;55808;48.112;11.552;2023-02-15T05:48:28;-1.10;99.90
68813;DHT22;55808;48.112;11.552;2023-02-15T05:51:08;-1.00;99.90
68813;DHT22;55808;48.112;11.552;2023-02-15T05:53:37;-0.90;99.90
68813;DHT22;55808;48.112;11.552;2023-02-15T05:56:04;-0.90;99.90
68813;DHT22;55808;48.112;11.552;2023-02-15T05:58:33;-0.80;99.90
68813;DHT22;55808;48.112;11.552;2023-02-15T06:01:06;-1.00;99.90
68813;DHT22;55808;48.112;11.552;2023-02-15T06:03:32;-1.00;99.90
68813;DHT22;55808;48.112;11.552;2023-02-15T06:05:57;-1.00;99.90
68813;DHT22;55808;48.112;11.552;2023-02-15T06:08:23;-1.00;99.90
68813;DHT22;55808;48.112;11.552;2023-02-15T06:10:49;-1.00;99.90
68813;DHT22;55808;48.112;11.552;2023-02-15T06:13:14;-1.00;99.90
68813;DHT22;55808;48.112;11.552;2023-02-15T06:15:40;-1.00;99.90
68813;DHT22;55808;48.112;11.552;2023-02-15T06:18:06;-1.00;99.90
68813;DHT22;55808;48.112;11.552;2023-02-15T06:20:31;-1.00;99.90
68813;DHT22;55808;48.112;11.552;2023-02-15T06:22:57;-1.00;99.90
68813;DHT22;55808;48.112;11.552;2023-02-15T06:25:23;-1.10;99.90
68813;DHT22;55808;48.112;11.552;2023-02-15T06:27:50;-1.20;99.90
68813;DHT22;55808;48.112;11.552;2023-02-15T06:30:15;-1.20;99.90
68813;DHT22;55808;48.112;11.552;2023-02-15T06:32:41;-1.10;99.90
68813;DHT22;55808;48.112;11.552;2023-02-15T06:35:07;-1.00;99.90
68813;DHT22;55808;48.112;11.552;2023-02-15T06:37:32;-0.90;99.90
68813;DHT22;55808;48.112;11.552;2023-02-15T06:39:58;-0.90;99.90
68813;DHT22;55808;48.112;11.552;2023-02-15T06:42:24;-0.90;99.90
68813;DHT22;55808;48.112;11.552;2023-02-15T06:44:50;-0.90;99.90
68813;DHT22;55808;48.112;11.552;2023-02-15T06:47:16;-0.90;99.90
68813;DHT22;55808;48.112;11.552;2023-02-15T06:49:41;-1.10;99.90
68813;DHT22;55808;48.112;11.552;2023-02-15T06:52:07;-1.30;99.90
68813;DHT22;55808;48.112;11.552;2023-02-15T06:54:33;-1.30;99.90
68813;DHT22;55808;48.112;11.552;2023-02-15T06:56:58;-1.10;99.90
68813;DHT22;55808;48.112;11.552;2023-02-15T06:59:24;-1.00;99.90
68813;DHT22;55808;48.112;11.552;2023-02-15T07:01:49;-1.20;99.90
68813;DHT22;55808;48.112;11.552;2023-02-15T07:04:15;-1.30;99.90
68813;DHT22;55808;48.112;11.552;2023-02-15T07:06:41;-1.20;99.90
68813;DHT22;55808;48.112;11.552;2023-02-15T07:09:07;-1.00;99.90
68813;DHT22;55808;48.112;11.552;2023-02-15T07:11:33;-1.00;99.90
68813;DHT22;55808;48.112;11.552;2023-02-15T07:14:19;-0.80;99.90
68813;DHT22;55808;48.112;11.552;2023-02-15T07:16:44;-0.70;99.90
68813;DHT22;55808;48.112;11.552;2023-02-15T07:19:10;-0.70;99.90
68813;DHT22;55808;48.112;11.552;2023-02-15T07:21:36;-0.70;99.90
68813;DHT22;55808;48.112;11.552;2023-02-15T07:24:02;-0.60;99.90
68813;DHT22;55808;48.112;11.552;2023-02-15T07:26:28;-0.70;99.90
68813;DHT22;55808;48.112;11.552;2023-02-15T07:28:53;-0.70;99.90
68813;DHT22;55808;48.112;11.552;2023-02-15T07:31:19;-0.60;99.90
68813;DHT22;55808;48.112;11.552;2023-02-15T07:33:45;-0.50;99.90
68813;DHT22;55808;48.112;11.552;2023-02-15T07:36:11;-0.40;99.90
68813;DHT22;55808;48.112;11.552;2023-02-15T07:38:39;-0.60;99.90
68813;DHT22;55808;48.112;11.552;2023-02-15T07:41:10;-0.60;99.90
68813;DHT22;55808;48.112;11.552;2023-02-15T07:43:38;-0.60;99.90
68813;DHT22;55808;48.112;11.552;2023-02-15T07:46:07;-0.70;99.90
68813;DHT22;55808;48.112;11.552;2023-02-15T07:48:33;-0.70;99.90
68813;DHT22;55808;48.112;11.552;2023-02-15T07:51:04;-0.70;99.90
68813;DHT22;55808;48.112;11.552;2023-02-15T07:53:30;-0.60;99.90
68813;DHT22;55808;48.112;11.552;2023-02-15T07:56:08;-0.50;99.90
68813;DHT22;55808;48.112;11.552;2023-02-15T07:58:34;-0.40;99.90
68813;DHT22;55808;48.112;11.552;2023-02-15T08:01:25;-0.40;99.90
68813;DHT22;55808;48.112;11.552;2023-02-15T08:03:52;-0.30;99.90
68813;DHT22;55808;48.112;11.552;2023-02-15T08:06:18;-0.30;99.90
68813;DHT22;55808;48.112;11.552;2023-02-15T08:08:44;-0.30;99.90
68813;DHT22;55808;48.112;11.552;2023-02-15T08:11:29;-0.20;99.90
68813;DHT22;55808;48.112;11.552;2023-02-15T08:14:09;-0.20;99.90
68813;DHT22;55808;48.112;11.552;2023-02-15T08:19:23;0.00;99.90
68813;DHT22;55808;48.112;11.552;2023-02-15T08:22:03;-0.10;99.90
68813;DHT22;55808;48.112;11.552;2023-02-15T08:24:32;-0.20;99.90
68813;DHT22;55808;48.112;11.552;2023-02-15T08:26:58;-0.10;99.90
68813;DHT22;55808;48.112;11.552;2023-02-15T08:29:28;-0.30;99.90
68813;DHT22;55808;48.112;11.552;2023-02-15T08:32:06;-0.20;99.90
68813;DHT22;55808;48.112;11.552;2023-02-15T08:34:37;-0.10;99.90
68813;DHT22;55808;48.112;11.552;2023-02-15T08:37:03;0.00;99.90
68813;DHT22;55808;48.112;11.552;2023-02-15T08:39:29;0.20;99.90
68813;DHT22;55808;48.112;11.552;2023-02-15T08:41:54;0.10;99.90
68813;DHT22;55808;48.112;11.552;2023-02-15T08:44:20;0.00;99.90
68813;DHT22;55808;48.112;11.552;2023-02-15T08:46:47;0.10;99.90
68813;DHT22;55808;48.112;11.552;2023-02-15T08:49:17;0.20;99.90
68813;DHT22;55808;48.112;11.552;2023-02-15T08:51:43;0.20;99.90
68813;DHT22;55808;48.112;11.552;2023-02-15T08:54:13;0.10;99.90
68813;DHT22;55808;48.112;11.552;2023-02-15T08:56:41;0.10;99.90
68813;DHT22;55808;48.112;11.552;2023-02-15T08:59:10;0.20;99.90
68813;DHT22;55808;48.112;11.552;2023-02-15T09:01:37;0.30;99.90
68813;DHT22;55808;48.112;11.552;2023-02-15T09:04:04;0.50;99.90
68813;DHT22;55808;48.112;11.552;2023-02-15T09:06:30;0.60;99.90
68813;DHT22;55808;48.112;11.552;2023-02-15T09:08:56;0.70;99.90
68813;DHT22;55808;48.112;11.552;2023-02-15T09:11:32;0.70;99.90
68813;DHT22;55808;48.112;11.552;2023-02-15T09:14:05;0.60;99.70
68813;DHT22;55808;48.112;11.552;2023-02-15T09:16:34;0.50;99.90
68813;DHT22;55808;48.112;11.552;2023-02-15T09:19:00;0.40;99.90
68813;DHT22;55808;48.112;11.552;2023-02-15T09:21:28;0.10;99.90
68813;DHT22;55808;48.112;11.552;2023-02-15T09:23:59;0.10;99.90
68813;DHT22;55808;48.112;11.552;2023-02-15T09:26:26;0.10;99.90
68813;DHT22;55808;48.112;11.552;2023-02-15T09:28:53;0.10;99.90
68813;DHT22;55808;48.112;11.552;2023-02-15T09:31:22;0.10;99.90
68813;DHT22;55808;48.112;11.552;2023-02-15T09:33:49;0.20;99.90
68813;DHT22;55808;48.112;11.552;2023-02-15T09:36:23;0.20;99.90
68813;DHT22;55808;48.112;11.552;2023-02-15T09:45:06;0.30;99.90
68813;DHT22;55808;48.112;11.552;2023-02-15T09:48:16;0.40;99.90
68813;DHT22;55808;48.112;11.552;2023-02-15T09:50:58;0.40;99.90
68813;DHT22;55808;48.112;11.552;2023-02-15T09:53:53;0.50;99.90
68813;DHT22;55808;48.112;11.552;2023-02-15T09:56:31;0.60;99.90
68813;DHT22;55808;48.112;11.552;2023-02-15T10:10:38;0.90;99.90
68813;DHT22;55808;48.112;11.552;2023-02-15T10:15:45;1.10;99.90
68813;DHT22;55808;48.112;11.552;2023-02-15T10:26:35;1.50;99.90
68813;DHT22;55808;48.112;11.552;2023-02-15T10:29:14;1.70;99.90
68813;DHT22;55808;48.112;11.552;2023-02-15T10:34:17;1.80;99.90
68813;DHT22;55808;48.112;11.552;2023-02-15T10:56:02;2.60;99.70
68813;DHT22;55808;48.112;11.552;2023-02-15T10:58:51;2.70;99.20
68813;DHT22;55808;48.112;11.552;2023-02-15T11:04:22;3.00;97.90
68813;DHT22;55808;48.112;11.552;2023-02-15T11:06:56;3.10;97.60
68813;DHT22;55808;48.112;11.552;2023-02-15T11:09:27;3.30;96.80
68813;DHT22;55808;48.112;11.552;2023-02-15T11:11:58;3.30;96.60
68813;DHT22;55808;48.112;11.552;2023-02-15T11:14:56;3.40;96.20
68813;DHT22;55808;48.112;11.552;2023-02-15T11:17:39;3.60;95.50
68813;DHT22;55808;48.112;11.552;2023-02-15T11:22:41;3.80;94.80
68813;DHT22;55808;48.112;11.552;2023-02-15T11:25:25;3.90;94.50
68813;DHT22;55808;48.112;11.552;2023-02-15T11:27:51;4.10;94.20
68813;DHT22;55808;48.112;11.552;2023-02-15T11:30:23;4.20;93.60
68813;DHT22;55808;48.112;11.552;2023-02-15T11:33:18;4.40;93.20
68813;DHT22;55808;48.112;11.552;2023-02-15T11:35:59;4.50;93.20
68813;DHT22;55808;48.112;11.552;2023-02-15T11:38:29;4.40;93.10
68813;DHT22;55808;48.112;11.552;2023-02-15T11:41:08;4.70;92.40
68813;DHT22;55808;48.112;11.552;2023-02-15T11:46:44;5.10;91.80
68813;DHT22;55808;48.112;11.552;2023-02-15T11:51:53;6.00;91.20
68813;DHT22;55808;48.112;11.552;2023-02-15T11:54:24;8.10;88.70
68813;DHT22;55808;48.112;11.552;2023-02-15T11:56:51;11.80;70.80
68813;DHT22;55808;48.112;11.552;2023-02-15T11:59:29;14.50;62.40
68813;DHT22;55808;48.112;11.552;2023-02-15T12:01:56;15.60;56.50
68813;DHT22;55808;48.112;11.552;2023-02-15T12:04:41;16.50;53.60
68813;DHT22;55808;48.112;11.552;2023-02-15T12:07:12;16.90;52.70
68813;DHT22;55808;48.112;11.552;2023-02-15T12:12:30;17.50;50.50
68813;DHT22;55808;48.112;11.552;2023-02-15T12:15:01;17.00;48.50
68813;DHT22;55808;48.112;11.552;2023-02-15T12:17:30;17.80;50.20
68813;DHT22;55808;48.112;11.552;2023-02-15T12:22:54;17.80;47.40
68813;DHT22;55808;48.112;11.552;2023-02-15T12:27:49;14.80;55.90
68813;DHT22;55808;48.112;11.552;2023-02-15T12:32:50;17.20;53.20
68813;DHT22;55808;48.112;11.552;2023-02-15T12:35:27;17.80;51.90
68813;DHT22;55808;48.112;11.552;2023-02-15T12:37:54;18.00;49.20
68813;DHT22;55808;48.112;11.552;2023-02-15T12:40:24;18.20;49.60
68813;DHT22;55808;48.112;11.552;2023-02-15T12:42:51;18.30;49.30
68813;DHT22;55808;48.112;11.552;2023-02-15T12:45:21;18.10;50.00
68813;DHT22;55808;48.112;11.552;2023-02-15T12:47:47;18.40;48.70
68813;DHT22;55808;48.112;11.552;2023-02-15T12:50:14;18.90;48.90
68813;DHT22;55808;48.112;11.552;2023-02-15T12:52:47;19.30;48.80
68813;DHT22;55808;48.112;11.552;2023-02-15T12:55:24;19.20;47.00
68813;DHT22;55808;48.112;11.552;2023-02-15T12:58:06;19.00;49.80
68813;DHT22;55808;48.112;11.552;2023-02-15T13:00:32;19.30;49.70
68813;DHT22;55808;48.112;11.552;2023-02-15T13:02:57;19.50;46.50
68813;DHT22;55808;48.112;11.552;2023-02-15T13:05:34;18.40;48.50
68813;DHT22;55808;48.112;11.552;2023-02-15T13:11:02;19.00;48.10
68813;DHT22;55808;48.112;11.552;2023-02-15T13:13:29;19.20;49.70
68813;DHT22;55808;48.112;11.552;2023-02-15T13:16:06;19.20;48.60
68813;DHT22;55808;48.112;11.552;2023-02-15T13:18:34;19.10;47.00
68813;DHT22;55808;48.112;11.552;2023-02-15T13:21:04;19.50;49.60
68813;DHT22;55808;48.112;11.552;2023-02-15T13:23:31;19.30;49.70
68813;DHT22;55808;48.112;11.552;2023-02-15T13:25:58;19.40;48.80
68813;DHT22;55808;48.112;11.552;2023-02-15T13:31:26;19.30;48.70
68813;DHT22;55808;48.112;11.552;2023-02-15T13:33:55;19.00;48.30
68813;DHT22;55808;48.112;11.552;2023-02-15T13:36:23;18.50;48.70
68813;DHT22;55808;48.112;11.552;2023-02-15T13:44:09;17.10;50.60
68813;DHT22;55808;48.112;11.552;2023-02-15T13:52:17;15.90;53.00
68813;DHT22;55808;48.112;11.552;2023-02-15T14:05:21;14.70;57.10
68813;DHT22;55808;48.112;11.552;2023-02-15T14:10:23;15.20;55.20
68813;DHT22;55808;48.112;11.552;2023-02-15T14:12:56;15.10;56.30
68813;DHT22;55808;48.112;11.552;2023-02-15T14:23:32;14.50;57.70
68813;DHT22;55808;48.112;11.552;2023-02-15T14:28:51;14.10;58.70
68813;DHT22;55808;48.112;11.552;2023-02-15T14:31:26;14.30;59.50
68813;DHT22;55808;48.112;11.552;2023-02-15T14:33:54;14.10;58.90
68813;DHT22;55808;48.112;11.552;2023-02-15T14:36:20;13.80;60.40
68813;DHT22;55808;48.112;11.552;2023-02-15T14:49:27;12.00;65.40
68813;DHT22;55808;48.112;11.552;2023-02-15T14:51:56;12.00;66.00
68813;DHT22;55808;48.112;11.552;2023-02-15T15:04:33;12.30;64.00
68813;DHT22;55808;48.112;11.552;2023-02-15T15:09:41;11.30;68.70
68813;DHT22;55808;48.112;11.552;2023-02-15T15:14:48;11.40;68.50
68813;DHT22;55808;48.112;11.552;2023-02-15T15:22:43;10.80;69.30
68813;DHT22;55808;48.112;11.552;2023-02-15T15:25:10;10.80;70.10
68813;DHT22;55808;48.112;11.552;2023-02-15T15:32:43;10.60;70.30
68813;DHT22;55808;48.112;11.552;2023-02-15T15:45:40;9.90;72.90
68813;DHT22;55808;48.112;11.552;2023-02-15T15:48:26;9.70;74.00
68813;DHT22;55808;48.112;11.552;2023-02-15T15:50:53;9.50;74.70
68813;DHT22;55808;48.112;11.552;2023-02-15T15:53:22;9.20;75.50
68813;DHT22;55808;48.112;11.552;2023-02-15T15:55:48;8.90;75.70
68813;DHT22;55808;48.112;11.552;2023-02-15T15:58:16;8.50;77.10
68813;DHT22;55808;48.112;11.552;2023-02-15T16:00:54;8.30;77.90
68813;DHT22;55808;48.112;11.552;2023-02-15T16:03:28;8.10;78.10
68813;DHT22;55808;48.112;11.552;2023-02-15T16:05:53;7.80;79.30
68813;DHT22;55808;48.112;11.552;2023-02-15T16:08:36;7.50;80.10
68813;DHT22;55808;48.112;11.552;2023-02-15T16:11:19;7.30;80.50
68813;DHT22;55808;48.112;11.552;2023-02-15T16:13:46;7.10;81.80
68813;DHT22;55808;48.112;11.552;2023-02-15T16:16:12;6.90;82.40
68813;DHT22;55808;48.112;11.552;2023-02-15T16:18:38;6.80;83.00
68813;DHT22;55808;48.112;11.552;2023-02-15T16:21:14;6.60;84.00
68813;DHT22;55808;48.112;11.552;2023-02-15T16:26:44;6.30;85.10
68813;DHT22;55808;48.112;11.552;2023-02-15T16:29:14;6.20;86.10
68813;DHT22;55808;48.112;11.552;2023-02-15T16:31:39;6.10;86.60
68813;DHT22;55808;48.112;11.552;2023-02-15T16:34:07;5.90;87.20
68813;DHT22;55808;48.112;11.552;2023-02-15T16:36:34;5.80;88.10
68813;DHT22;55808;48.112;11.552;2023-02-15T16:39:08;5.60;89.00
68813;DHT22;55808;48.112;11.552;2023-02-15T16:41:34;5.50;90.00
68813;DHT22;55808;48.112;11.552;2023-02-15T16:44:05;5.40;90.40
68813;DHT22;55808;48.112;11.552;2023-02-15T16:46:32;5.30;90.70
68813;DHT22;55808;48.112;11.552;2023-02-15T16:49:00;5.20;91.40
68813;DHT22;55808;48.112;11.552;2023-02-15T16:51:28;5.10;91.50
68813;DHT22;55808;48.112;11.552;2023-02-15T16:53:55;5.10;91.80
68813;DHT22;55808;48.112;11.552;2023-02-15T16:56:24;4.90;92.20
68813;DHT22;55808;48.112;11.552;2023-02-15T16:58:51;4.80;92.50
68813;DHT22;55808;48.112;11.552;2023-02-15T17:01:17;4.70;92.80
68813;DHT22;55808;48.112;11.552;2023-02-15T17:03:45;4.60;93.30
68813;DHT22;55808;48.112;11.552;2023-02-15T17:06:21;4.60;93.60
68813;DHT22;55808;48.112;11.552;2023-02-15T17:08:47;4.40;94.00
68813;DHT22;55808;48.112;11.552;2023-02-15T17:11:16;4.40;94.10
68813;DHT22;55808;48.112;11.552;2023-02-15T17:16:28;4.20;94.70
68813;DHT22;55808;48.112;11.552;2023-02-15T17:18:55;4.10;95.10
68813;DHT22;55808;48.112;11.552;2023-02-15T17:21:26;4.00;95.40
68813;DHT22;55808;48.112;11.552;2023-02-15T17:23:56;4.00;95.70
68813;DHT22;55808;48.112;11.552;2023-02-15T17:26:24;3.90;96.10
68813;DHT22;55808;48.112;11.552;2023-02-15T17:29:55;3.90;96.50
68813;DHT22;55808;48.112;11.552;2023-02-15T17:31:47;3.90;96.60
68813;DHT22;55808;48.112;11.552;2023-02-15T17:36:59;3.70;97.10
68813;DHT22;55808;48.112;11.552;2023-02-15T17:39:24;3.70;97.50
68813;DHT22;55808;48.112;11.552;2023-02-15T17:41:50;3.60;97.80
68813;DHT22;55808;48.112;11.552;2023-02-15T17:44:18;3.60;98.00
68813;DHT22;55808;48.112;11.552;2023-02-15T17:46:43;3.50;98.10
68813;DHT22;55808;48.112;11.552;2023-02-15T17:49:13;3.50;98.60
68813;DHT22;55808;48.112;11.552;2023-02-15T17:51:43;3.50;98.70
68813;DHT22;55808;48.112;11.552;2023-02-15T17:54:09;3.40;98.40
68813;DHT22;55808;48.112;11.552;2023-02-15T17:56:53;3.30;99.00
68813;DHT22;55808;48.112;11.552;2023-02-15T17:59:20;3.20;99.50
68813;DHT22;55808;48.112;11.552;2023-02-15T18:01:47;3.20;99.90
68813;DHT22;55808;48.112;11.552;2023-02-15T18:04:35;3.10;99.90
68813;DHT22;55808;48.112;11.552;2023-02-15T18:07:19;3.10;99.90
68813;DHT22;55808;48.112;11.552;2023-02-15T18:10:14;3.00;99.90
68813;DHT22;55808;48.112;11.552;2023-02-15T18:12:58;2.90;99.90
68813;DHT22;55808;48.112;11.552;2023-02-15T18:15:23;2.90;99.90
68813;DHT22;55808;48.112;11.552;2023-02-15T18:17:50;2.80;99.90
68813;DHT22;55808;48.112;11.552;2023-02-15T18:20:20;2.80;99.90
68813;DHT22;55808;48.112;11.552;2023-02-15T18:22:48;2.70;99.90
68813;DHT22;55808;48.112;11.552;2023-02-15T18:25:14;2.70;99.90
68813;DHT22;55808;48.112;11.552;2023-02-15T18:27:41;2.70;99.90
68813;DHT22;55808;48.112;11.552;2023-02-15T18:30:06;2.60;99.90
68813;DHT22;55808;48.112;11.552;2023-02-15T18:32:33;2.60;99.90
68813;DHT22;55808;48.112;11.552;2023-02-15T18:35:00;2.60;99.90
68813;DHT22;55808;48.112;11.552;2023-02-15T18:37:27;2.70;99.90
68813;DHT22;55808;48.112;11.552;2023-02-15T18:39:54;2.70;99.90
68813;DHT22;55808;48.112;11.552;2023-02-15T18:42:23;2.70;99.90
68813;DHT22;55808;48.112;11.552;2023-02-15T18:44:55;2.70;99.90
68813;DHT22;55808;48.112;11.552;2023-02-15T18:47:21;2.80;99.90
68813;DHT22;55808;48.112;11.552;2023-02-15T18:49:46;2.70;99.90
68813;DHT22;55808;48.112;11.552;2023-02-15T18:52:14;2.70;99.90
68813;DHT22;55808;48.112;11.552;2023-02-15T18:54:40;2.70;99.90
68813;DHT22;55808;48.112;11.552;2023-02-15T18:57:07;2.70;99.90
68813;DHT22;55808;48.112;11.552;2023-02-15T18:59:33;2.80;99.90